sensor_id;sensor_type;location;lat;lon;timestamp;P1;durP1;ratioP1;P2;durP2;ratioP2
38413;SDS011;24195;48.654;9.294;2022-07-23T00:00:34;8.63;;;7.93;;
38413;SDS011;24195;48.654;9.294;2022-07-23T00:03:00;8.10;;;7.40;;
38413;SDS011;24195;48.654;9.294;2022-07-23T00:05:25;8.67;;;7.87;;
38413;SDS011;24195;48.654;9.294;2022-07-23T00:07:51;8.70;;;7.80;;
38413;SDS011;24195;48.654;9.294;2022-07-23T00:10:17;7.97;;;7.23;;
38413;SDS011;24195;48.654;9.294;2022-07-23T00:12:43;7.90;;;7.30;;
38413;SDS011;24195;48.654;9.294;2022-07-23T00:15:09;8.07;;;7.37;;
38413;SDS011;24195;48.654;9.294;2022-07-23T00:17:35;8.23;;;7.63;;
38413;SDS011;24195;48.654;9.294;2022-07-23T00:20:01;7.30;;;6.70;;
38413;SDS011;24195;48.654;9.294;2022-07-23T00:22:27;8.00;;;7.27;;
38413;SDS011;24195;48.654;9.294;2022-07-23T00:24:54;7.80;;;7.20;;
38413;SDS011;24195;48.654;9.294;2022-07-23T00:27:23;8.53;;;7.63;;
38413;SDS011;24195;48.654;9.294;2022-07-23T00:29:49;8.03;;;7.33;;
38413;SDS011;24195;48.654;9.294;2022-07-23T00:32:15;8.50;;;7.67;;
38413;SDS011;24195;48.654;9.294;2022-07-23T00:34:41;7.60;;;7.00;;
38413;SDS011;24195;48.654;9.294;2022-07-23T00:37:08;8.03;;;7.43;;
38413;SDS011;24195;48.654;9.294;2022-07-23T00:39:39;7.90;;;7.20;;
38413;SDS011;24195;48.654;9.294;2022-07-23T00:42:05;8.53;;;7.27;;
38413;SDS011;24195;48.654;9.294;2022-07-23T00:44:31;8.37;;;7.67;;
38413;SDS011;24195;48.654;9.294;2022-07-23T00:46:57;7.53;;;6.83;;
38413;SDS011;24195;48.654;9.294;2022-07-23T00:49:37;7.73;;;7.23;;
38413;SDS011;24195;48.654;9.294;2022-07-23T00:52:15;6.47;;;5.97;;
38413;SDS011;24195;48.654;9.294;2022-07-23T00:54:44;6.20;;;5.60;;
38413;SDS011;24195;48.654;9.294;2022-07-23T00:57:10;5.70;;;5.30;;
38413;SDS011;24195;48.654;9.294;2022-07-23T00:59:37;7.00;;;5.47;;
38413;SDS011;24195;48.654;9.294;2022-07-23T01:02:04;6.47;;;5.70;;
38413;SDS011;24195;48.654;9.294;2022-07-23T01:04:30;5.20;;;4.80;;
38413;SDS011;24195;48.654;9.294;2022-07-23T01:06:55;5.93;;;5.43;;
38413;SDS011;24195;48.654;9.294;2022-07-23T01:09:21;6.23;;;5.80;;
38413;SDS011;24195;48.654;9.294;2022-07-23T01:11:47;5.70;;;5.30;;
38413;SDS011;24195;48.654;9.294;2022-07-23T01:14:15;6.57;;;6.07;;
38413;SDS011;24195;48.654;9.294;2022-07-23T01:16:42;5.63;;;5.20;;
38413;SDS011;24195;48.654;9.294;2022-07-23T01:19:10;5.43;;;5.03;;
38413;SDS011;24195;48.654;9.294;2022-07-23T01:21:36;5.90;;;5.50;;
38413;SDS011;24195;48.654;9.294;2022-07-23T01:24:04;6.17;;;5.77;;
38413;SDS011;24195;48.654;9.294;2022-07-23T01:26:30;6.10;;;5.70;;
38413;SDS011;24195;48.654;9.294;2022-07-23T01:28:55;5.90;;;5.50;;
38413;SDS011;24195;48.654;9.294;2022-07-23T01:31:21;5.40;;;5.00;;
38413;SDS011;24195;48.654;9.294;2022-07-23T01:33:47;5.80;;;5.40;;
38413;SDS011;24195;48.654;9.294;2022-07-23T01:36:13;6.67;;;6.17;;
38413;SDS011;24195;48.654;9.294;2022-07-23T01:38:39;6.57;;;6.00;;
38413;SDS011;24195;48.654;9.294;2022-07-23T01:41:15;5.77;;;5.37;;
38413;SDS011;24195;48.654;9.294;2022-07-23T01:43:41;5.40;;;5.00;;
38413;SDS011;24195;48.654;9.294;2022-07-23T01:46:07;6.20;;;5.80;;
38413;SDS011;24195;48.654;9.294;2022-07-23T01:48:33;6.93;;;6.37;;
38413;SDS011;24195;48.654;9.294;2022-07-23T01:50:59;5.90;;;5.40;;
38413;SDS011;24195;48.654;9.294;2022-07-23T01:53:26;5.37;;;4.97;;
38413;SDS011;24195;48.654;9.294;2022-07-23T01:55:52;6.60;;;6.00;;
38413;SDS011;24195;48.654;9.294;2022-07-23T01:58:17;5.50;;;5.10;;
38413;SDS011;24195;48.654;9.294;2022-07-23T02:00:48;6.07;;;5.67;;
38413;SDS011;24195;48.654;9.294;2022-07-23T02:03:17;6.80;;;6.30;;
38413;SDS011;24195;48.654;9.294;2022-07-23T02:05:43;6.10;;;5.70;;
38413;SDS011;24195;48.654;9.294;2022-07-23T02:08:18;5.80;;;5.40;;
38413;SDS011;24195;48.654;9.294;2022-07-23T02:10:47;6.40;;;5.97;;
38413;SDS011;24195;48.654;9.294;2022-07-23T02:13:22;5.90;;;5.40;;
38413;SDS011;24195;48.654;9.294;2022-07-23T02:15:51;5.23;;;4.93;;
38413;SDS011;24195;48.654;9.294;2022-07-23T02:18:17;5.97;;;5.47;;
38413;SDS011;24195;48.654;9.294;2022-07-23T02:20:42;6.50;;;5.90;;
38413;SDS011;24195;48.654;9.294;2022-07-23T02:23:09;5.50;;;5.10;;
38413;SDS011;24195;48.654;9.294;2022-07-23T02:25:35;5.90;;;5.33;;
38413;SDS011;24195;48.654;9.294;2022-07-23T02:28:01;5.63;;;5.23;;
38413;SDS011;24195;48.654;9.294;2022-07-23T02:30:27;5.90;;;5.40;;
38413;SDS011;24195;48.654;9.294;2022-07-23T02:32:52;6.70;;;6.03;;
38413;SDS011;24195;48.654;9.294;2022-07-23T02:35:18;6.27;;;5.63;;
38413;SDS011;24195;48.654;9.294;2022-07-23T02:37:43;6.50;;;5.90;;
38413;SDS011;24195;48.654;9.294;2022-07-23T02:40:09;6.70;;;6.20;;
38413;SDS011;24195;48.654;9.294;2022-07-23T02:42:35;6.40;;;5.90;;
38413;SDS011;24195;48.654;9.294;2022-07-23T02:45:01;6.10;;;5.60;;
38413;SDS011;24195;48.654;9.294;2022-07-23T02:47:26;6.20;;;5.60;;
38413;SDS011;24195;48.654;9.294;2022-07-23T02:49:52;5.90;;;5.50;;
38413;SDS011;24195;48.654;9.294;2022-07-23T02:52:17;6.47;;;5.97;;
38413;SDS011;24195;48.654;9.294;2022-07-23T02:54:43;6.13;;;5.60;;
38413;SDS011;24195;48.654;9.294;2022-07-23T02:57:08;6.03;;;5.63;;
38413;SDS011;24195;48.654;9.294;2022-07-23T02:59:37;6.30;;;5.80;;
38413;SDS011;24195;48.654;9.294;2022-07-23T03:02:16;6.10;;;5.60;;
38413;SDS011;24195;48.654;9.294;2022-07-23T03:04:42;7.13;;;6.63;;
38413;SDS011;24195;48.654;9.294;2022-07-23T03:07:07;6.67;;;6.07;;
38413;SDS011;24195;48.654;9.294;2022-07-23T03:09:33;6.37;;;5.87;;
38413;SDS011;24195;48.654;9.294;2022-07-23T03:11:59;6.20;;;5.70;;
38413;SDS011;24195;48.654;9.294;2022-07-23T03:14:27;6.10;;;5.50;;
38413;SDS011;24195;48.654;9.294;2022-07-23T03:16:53;6.00;;;5.60;;
38413;SDS011;24195;48.654;9.294;2022-07-23T03:19:21;7.17;;;6.60;;
38413;SDS011;24195;48.654;9.294;2022-07-23T03:21:46;6.17;;;5.60;;
38413;SDS011;24195;48.654;9.294;2022-07-23T03:24:12;6.87;;;6.37;;
38413;SDS011;24195;48.654;9.294;2022-07-23T03:26:38;6.57;;;5.97;;
38413;SDS011;24195;48.654;9.294;2022-07-23T03:29:04;7.10;;;6.53;;
38413;SDS011;24195;48.654;9.294;2022-07-23T03:31:30;6.07;;;5.57;;
38413;SDS011;24195;48.654;9.294;2022-07-23T03:33:56;7.17;;;6.57;;
38413;SDS011;24195;48.654;9.294;2022-07-23T03:36:22;7.30;;;6.60;;
38413;SDS011;24195;48.654;9.294;2022-07-23T03:38:48;7.30;;;6.70;;
38413;SDS011;24195;48.654;9.294;2022-07-23T03:41:13;5.67;;;5.23;;
38413;SDS011;24195;48.654;9.294;2022-07-23T03:43:39;7.40;;;6.80;;
38413;SDS011;24195;48.654;9.294;2022-07-23T03:46:04;7.20;;;5.90;;
38413;SDS011;24195;48.654;9.294;2022-07-23T03:48:30;6.87;;;6.27;;
38413;SDS011;24195;48.654;9.294;2022-07-23T03:50:55;7.97;;;5.70;;
38413;SDS011;24195;48.654;9.294;2022-07-23T03:53:21;6.47;;;5.87;;
38413;SDS011;24195;48.654;9.294;2022-07-23T03:55:47;6.60;;;6.10;;
38413;SDS011;24195;48.654;9.294;2022-07-23T03:58:12;6.73;;;6.23;;
38413;SDS011;24195;48.654;9.294;2022-07-23T04:00:38;6.37;;;5.87;;
38413;SDS011;24195;48.654;9.294;2022-07-23T04:03:03;6.60;;;6.00;;
38413;SDS011;24195;48.654;9.294;2022-07-23T04:05:29;6.37;;;5.87;;
38413;SDS011;24195;48.654;9.294;2022-07-23T04:07:54;6.57;;;6.00;;
38413;SDS011;24195;48.654;9.294;2022-07-23T04:10:20;6.50;;;5.90;;
38413;SDS011;24195;48.654;9.294;2022-07-23T04:12:45;6.30;;;5.70;;
38413;SDS011;24195;48.654;9.294;2022-07-23T04:15:11;7.07;;;6.37;;
38413;SDS011;24195;48.654;9.294;2022-07-23T04:17:36;7.63;;;6.93;;
38413;SDS011;24195;48.654;9.294;2022-07-23T04:20:02;7.20;;;6.70;;
38413;SDS011;24195;48.654;9.294;2022-07-23T04:22:28;6.93;;;6.30;;
38413;SDS011;24195;48.654;9.294;2022-07-23T04:24:54;7.10;;;6.50;;
38413;SDS011;24195;48.654;9.294;2022-07-23T04:27:19;7.50;;;6.90;;
38413;SDS011;24195;48.654;9.294;2022-07-23T04:29:45;8.00;;;7.30;;
38413;SDS011;24195;48.654;9.294;2022-07-23T04:32:10;7.07;;;6.57;;
38413;SDS011;24195;48.654;9.294;2022-07-23T04:34:36;7.27;;;6.67;;
38413;SDS011;24195;48.654;9.294;2022-07-23T04:37:01;6.97;;;6.33;;
38413;SDS011;24195;48.654;9.294;2022-07-23T04:39:27;7.33;;;6.70;;
38413;SDS011;24195;48.654;9.294;2022-07-23T04:41:52;7.33;;;6.67;;
38413;SDS011;24195;48.654;9.294;2022-07-23T04:44:18;8.33;;;7.63;;
38413;SDS011;24195;48.654;9.294;2022-07-23T04:46:43;7.60;;;7.07;;
38413;SDS011;24195;48.654;9.294;2022-07-23T04:49:09;7.40;;;6.90;;
38413;SDS011;24195;48.654;9.294;2022-07-23T04:51:34;8.47;;;7.67;;
38413;SDS011;24195;48.654;9.294;2022-07-23T04:54:00;8.17;;;7.47;;
38413;SDS011;24195;48.654;9.294;2022-07-23T04:56:25;7.93;;;7.33;;
38413;SDS011;24195;48.654;9.294;2022-07-23T04:58:51;7.40;;;6.70;;
38413;SDS011;24195;48.654;9.294;2022-07-23T05:01:16;7.57;;;6.97;;
38413;SDS011;24195;48.654;9.294;2022-07-23T05:03:42;8.03;;;7.37;;
38413;SDS011;24195;48.654;9.294;2022-07-23T05:06:07;9.17;;;8.33;;
38413;SDS011;24195;48.654;9.294;2022-07-23T05:08:35;8.67;;;7.97;;
38413;SDS011;24195;48.654;9.294;2022-07-23T05:11:01;7.43;;;6.70;;
38413;SDS011;24195;48.654;9.294;2022-07-23T05:13:26;7.87;;;7.10;;
38413;SDS011;24195;48.654;9.294;2022-07-23T05:15:52;7.70;;;7.10;;
38413;SDS011;24195;48.654;9.294;2022-07-23T05:18:18;8.20;;;7.50;;
38413;SDS011;24195;48.654;9.294;2022-07-23T05:20:43;8.90;;;8.07;;
38413;SDS011;24195;48.654;9.294;2022-07-23T05:23:09;7.57;;;6.87;;
38413;SDS011;24195;48.654;9.294;2022-07-23T05:25:35;8.90;;;8.07;;
38413;SDS011;24195;48.654;9.294;2022-07-23T05:28:00;8.07;;;7.43;;
38413;SDS011;24195;48.654;9.294;2022-07-23T05:30:26;7.83;;;7.23;;
38413;SDS011;24195;48.654;9.294;2022-07-23T05:32:51;7.73;;;7.03;;
38413;SDS011;24195;48.654;9.294;2022-07-23T05:35:17;8.00;;;7.40;;
38413;SDS011;24195;48.654;9.294;2022-07-23T05:37:49;8.27;;;7.50;;
38413;SDS011;24195;48.654;9.294;2022-07-23T05:40:17;7.90;;;7.30;;
38413;SDS011;24195;48.654;9.294;2022-07-23T05:42:43;8.27;;;7.67;;
38413;SDS011;24195;48.654;9.294;2022-07-23T05:45:14;9.47;;;8.63;;
38413;SDS011;24195;48.654;9.294;2022-07-23T05:47:44;9.37;;;8.47;;
38413;SDS011;24195;48.654;9.294;2022-07-23T05:50:11;8.30;;;7.50;;
38413;SDS011;24195;48.654;9.294;2022-07-23T05:52:39;9.10;;;8.30;;
38413;SDS011;24195;48.654;9.294;2022-07-23T05:55:08;9.90;;;9.00;;
38413;SDS011;24195;48.654;9.294;2022-07-23T05:57:41;9.47;;;8.77;;
38413;SDS011;24195;48.654;9.294;2022-07-23T06:00:07;8.70;;;7.90;;
38413;SDS011;24195;48.654;9.294;2022-07-23T06:02:37;9.07;;;8.47;;
38413;SDS011;24195;48.654;9.294;2022-07-23T06:08:46;9.63;;;8.83;;
38413;SDS011;24195;48.654;9.294;2022-07-23T06:12:13;9.20;;;8.40;;
38413;SDS011;24195;48.654;9.294;2022-07-23T06:15:06;9.00;;;8.30;;
38413;SDS011;24195;48.654;9.294;2022-07-23T06:17:39;8.77;;;8.10;;
38413;SDS011;24195;48.654;9.294;2022-07-23T06:20:12;9.23;;;8.43;;
38413;SDS011;24195;48.654;9.294;2022-07-23T06:22:41;10.03;;;9.03;;
38413;SDS011;24195;48.654;9.294;2022-07-23T06:25:07;9.40;;;8.60;;
38413;SDS011;24195;48.654;9.294;2022-07-23T06:27:33;9.07;;;8.27;;
38413;SDS011;24195;48.654;9.294;2022-07-23T06:29:59;9.87;;;9.07;;
38413;SDS011;24195;48.654;9.294;2022-07-23T06:32:25;9.87;;;9.07;;
38413;SDS011;24195;48.654;9.294;2022-07-23T06:34:51;10.10;;;9.20;;
38413;SDS011;24195;48.654;9.294;2022-07-23T06:37:16;10.17;;;9.33;;
38413;SDS011;24195;48.654;9.294;2022-07-23T06:39:48;9.60;;;8.90;;
38413;SDS011;24195;48.654;9.294;2022-07-23T06:42:27;9.93;;;9.13;;
38413;SDS011;24195;48.654;9.294;2022-07-23T06:44:53;8.93;;;8.30;;
38413;SDS011;24195;48.654;9.294;2022-07-23T06:47:18;9.40;;;8.60;;
38413;SDS011;24195;48.654;9.294;2022-07-23T06:49:44;9.10;;;8.40;;
38413;SDS011;24195;48.654;9.294;2022-07-23T06:52:10;9.17;;;8.43;;
38413;SDS011;24195;48.654;9.294;2022-07-23T06:54:35;12.13;;;9.03;;
38413;SDS011;24195;48.654;9.294;2022-07-23T06:57:01;9.40;;;8.77;;
38413;SDS011;24195;48.654;9.294;2022-07-23T06:59:29;9.47;;;8.70;;
38413;SDS011;24195;48.654;9.294;2022-07-23T07:01:55;11.67;;;10.10;;
38413;SDS011;24195;48.654;9.294;2022-07-23T07:04:22;11.10;;;8.97;;
38413;SDS011;24195;48.654;9.294;2022-07-23T07:06:48;10.90;;;10.00;;
38413;SDS011;24195;48.654;9.294;2022-07-23T07:09:13;10.00;;;9.10;;
38413;SDS011;24195;48.654;9.294;2022-07-23T07:11:39;9.70;;;8.90;;
38413;SDS011;24195;48.654;9.294;2022-07-23T07:14:05;9.30;;;8.60;;
38413;SDS011;24195;48.654;9.294;2022-07-23T07:16:31;9.97;;;8.97;;
38413;SDS011;24195;48.654;9.294;2022-07-23T07:18:56;9.30;;;8.50;;
38413;SDS011;24195;48.654;9.294;2022-07-23T07:21:22;9.07;;;8.13;;
38413;SDS011;24195;48.654;9.294;2022-07-23T07:23:50;8.60;;;8.00;;
38413;SDS011;24195;48.654;9.294;2022-07-23T07:26:15;9.10;;;8.30;;
38413;SDS011;24195;48.654;9.294;2022-07-23T07:28:43;9.27;;;8.57;;
38413;SDS011;24195;48.654;9.294;2022-07-23T07:31:09;9.63;;;8.73;;
38413;SDS011;24195;48.654;9.294;2022-07-23T07:33:37;8.93;;;8.30;;
38413;SDS011;24195;48.654;9.294;2022-07-23T07:36:03;9.27;;;8.37;;
38413;SDS011;24195;48.654;9.294;2022-07-23T07:38:29;8.07;;;7.53;;
38413;SDS011;24195;48.654;9.294;2022-07-23T07:40:54;8.20;;;7.50;;
38413;SDS011;24195;48.654;9.294;2022-07-23T07:43:20;9.07;;;8.27;;
38413;SDS011;24195;48.654;9.294;2022-07-23T07:45:48;8.57;;;7.87;;
38413;SDS011;24195;48.654;9.294;2022-07-23T07:48:16;7.30;;;6.80;;
38413;SDS011;24195;48.654;9.294;2022-07-23T07:50:41;8.20;;;7.50;;
38413;SDS011;24195;48.654;9.294;2022-07-23T07:53:07;8.17;;;7.47;;
38413;SDS011;24195;48.654;9.294;2022-07-23T07:55:33;8.90;;;8.10;;
38413;SDS011;24195;48.654;9.294;2022-07-23T07:57:59;9.33;;;8.53;;
38413;SDS011;24195;48.654;9.294;2022-07-23T08:00:25;9.07;;;8.40;;
38413;SDS011;24195;48.654;9.294;2022-07-23T08:02:52;7.97;;;7.37;;
38413;SDS011;24195;48.654;9.294;2022-07-23T08:05:23;7.73;;;7.13;;
38413;SDS011;24195;48.654;9.294;2022-07-23T08:07:53;8.10;;;7.40;;
38413;SDS011;24195;48.654;9.294;2022-07-23T08:10:19;7.13;;;6.63;;
38413;SDS011;24195;48.654;9.294;2022-07-23T08:12:45;7.33;;;6.83;;
38413;SDS011;24195;48.654;9.294;2022-07-23T08:15:12;8.00;;;7.30;;
38413;SDS011;24195;48.654;9.294;2022-07-23T08:17:40;7.50;;;7.00;;
38413;SDS011;24195;48.654;9.294;2022-07-23T08:20:07;7.53;;;6.93;;
38413;SDS011;24195;48.654;9.294;2022-07-23T08:22:52;7.50;;;6.93;;
38413;SDS011;24195;48.654;9.294;2022-07-23T08:25:29;7.30;;;6.70;;
38413;SDS011;24195;48.654;9.294;2022-07-23T08:28:18;8.33;;;7.67;;
38413;SDS011;24195;48.654;9.294;2022-07-23T08:30:43;8.63;;;7.90;;
38413;SDS011;24195;48.654;9.294;2022-07-23T08:33:10;8.97;;;8.10;;
38413;SDS011;24195;48.654;9.294;2022-07-23T08:35:45;9.10;;;7.50;;
38413;SDS011;24195;48.654;9.294;2022-07-23T08:38:17;8.37;;;7.70;;
38413;SDS011;24195;48.654;9.294;2022-07-23T08:40:52;8.13;;;7.53;;
38413;SDS011;24195;48.654;9.294;2022-07-23T08:43:22;8.40;;;7.67;;
38413;SDS011;24195;48.654;9.294;2022-07-23T08:45:50;9.23;;;8.53;;
38413;SDS011;24195;48.654;9.294;2022-07-23T08:48:20;9.10;;;8.40;;
38413;SDS011;24195;48.654;9.294;2022-07-23T08:50:54;9.53;;;8.83;;
38413;SDS011;24195;48.654;9.294;2022-07-23T08:53:22;8.70;;;8.10;;
38413;SDS011;24195;48.654;9.294;2022-07-23T08:55:52;8.13;;;7.63;;
38413;SDS011;24195;48.654;9.294;2022-07-23T08:58:19;9.10;;;8.40;;
38413;SDS011;24195;48.654;9.294;2022-07-23T09:00:53;8.50;;;7.80;;
38413;SDS011;24195;48.654;9.294;2022-07-23T09:03:21;8.40;;;7.70;;
38413;SDS011;24195;48.654;9.294;2022-07-23T09:06:21;9.33;;;8.43;;
38413;SDS011;24195;48.654;9.294;2022-07-23T09:08:49;8.93;;;7.83;;
38413;SDS011;24195;48.654;9.294;2022-07-23T09:11:15;8.30;;;7.70;;
38413;SDS011;24195;48.654;9.294;2022-07-23T09:13:42;9.30;;;8.70;;
38413;SDS011;24195;48.654;9.294;2022-07-23T09:18:44;9.70;;;8.90;;
38413;SDS011;24195;48.654;9.294;2022-07-23T09:21:25;9.13;;;8.43;;
38413;SDS011;24195;48.654;9.294;2022-07-23T09:24:04;9.70;;;8.90;;
38413;SDS011;24195;48.654;9.294;2022-07-23T09:26:35;9.40;;;8.60;;
38413;SDS011;24195;48.654;9.294;2022-07-23T09:31:31;9.07;;;8.37;;
38413;SDS011;24195;48.654;9.294;2022-07-23T09:34:12;9.20;;;8.50;;
38413;SDS011;24195;48.654;9.294;2022-07-23T09:36:39;8.90;;;8.10;;
38413;SDS011;24195;48.654;9.294;2022-07-23T09:39:05;9.77;;;9.07;;
38413;SDS011;24195;48.654;9.294;2022-07-23T09:41:35;9.80;;;9.00;;
38413;SDS011;24195;48.654;9.294;2022-07-23T09:44:12;10.30;;;9.50;;
38413;SDS011;24195;48.654;9.294;2022-07-23T09:46:40;9.50;;;8.63;;
38413;SDS011;24195;48.654;9.294;2022-07-23T09:49:16;9.23;;;8.53;;
38413;SDS011;24195;48.654;9.294;2022-07-23T09:51:53;9.67;;;8.90;;
38413;SDS011;24195;48.654;9.294;2022-07-23T09:54:27;9.73;;;9.03;;
38413;SDS011;24195;48.654;9.294;2022-07-23T09:56:53;9.00;;;8.40;;
38413;SDS011;24195;48.654;9.294;2022-07-23T09:59:22;9.53;;;8.67;;
38413;SDS011;24195;48.654;9.294;2022-07-23T10:01:53;9.70;;;9.00;;
38413;SDS011;24195;48.654;9.294;2022-07-23T10:04:21;9.33;;;8.53;;
38413;SDS011;24195;48.654;9.294;2022-07-23T10:06:50;9.60;;;8.80;;
38413;SDS011;24195;48.654;9.294;2022-07-23T10:09:18;8.63;;;8.00;;
38413;SDS011;24195;48.654;9.294;2022-07-23T10:11:58;9.03;;;8.43;;
38413;SDS011;24195;48.654;9.294;2022-07-23T10:14:43;9.57;;;8.87;;
38413;SDS011;24195;48.654;9.294;2022-07-23T10:17:10;9.70;;;8.80;;
38413;SDS011;24195;48.654;9.294;2022-07-23T10:19:35;9.50;;;8.80;;
38413;SDS011;24195;48.654;9.294;2022-07-23T10:22:02;9.33;;;8.73;;
38413;SDS011;24195;48.654;9.294;2022-07-23T10:24:45;9.13;;;8.53;;
38413;SDS011;24195;48.654;9.294;2022-07-23T10:30:12;10.70;;;9.90;;
38413;SDS011;24195;48.654;9.294;2022-07-23T10:32:51;10.70;;;10.00;;
38413;SDS011;24195;48.654;9.294;2022-07-23T10:35:47;10.30;;;9.50;;
38413;SDS011;24195;48.654;9.294;2022-07-23T10:40:59;10.00;;;9.27;;
38413;SDS011;24195;48.654;9.294;2022-07-23T10:43:26;9.60;;;8.90;;
38413;SDS011;24195;48.654;9.294;2022-07-23T10:45:53;9.50;;;8.70;;
38413;SDS011;24195;48.654;9.294;2022-07-23T10:48:22;10.03;;;9.20;;
38413;SDS011;24195;48.654;9.294;2022-07-23T10:53:53;9.80;;;9.00;;
38413;SDS011;24195;48.654;9.294;2022-07-23T10:59:20;8.10;;;7.53;;
38413;SDS011;24195;48.654;9.294;2022-07-23T11:01:46;8.47;;;7.87;;
38413;SDS011;24195;48.654;9.294;2022-07-23T11:04:12;8.90;;;8.13;;
38413;SDS011;24195;48.654;9.294;2022-07-23T11:09:29;8.87;;;8.17;;
38413;SDS011;24195;48.654;9.294;2022-07-23T11:17:34;8.90;;;7.93;;
38413;SDS011;24195;48.654;9.294;2022-07-23T11:22:35;9.57;;;8.77;;
38413;SDS011;24195;48.654;9.294;2022-07-23T11:25:01;9.70;;;8.97;;
38413;SDS011;24195;48.654;9.294;2022-07-23T11:27:36;8.33;;;7.80;;
38413;SDS011;24195;48.654;9.294;2022-07-23T11:30:02;8.80;;;8.20;;
38413;SDS011;24195;48.654;9.294;2022-07-23T11:32:30;9.30;;;8.70;;
38413;SDS011;24195;48.654;9.294;2022-07-23T11:34:59;9.00;;;8.20;;
38413;SDS011;24195;48.654;9.294;2022-07-23T11:37:33;9.00;;;8.20;;
38413;SDS011;24195;48.654;9.294;2022-07-23T11:40:03;10.00;;;9.20;;
38413;SDS011;24195;48.654;9.294;2022-07-23T11:42:37;9.00;;;8.33;;
38413;SDS011;24195;48.654;9.294;2022-07-23T11:45:05;8.40;;;7.70;;
38413;SDS011;24195;48.654;9.294;2022-07-23T11:47:32;9.33;;;8.70;;
38413;SDS011;24195;48.654;9.294;2022-07-23T11:49:59;9.07;;;8.37;;
38413;SDS011;24195;48.654;9.294;2022-07-23T11:52:27;8.97;;;8.37;;
38413;SDS011;24195;48.654;9.294;2022-07-23T11:54:54;9.03;;;8.40;;
38413;SDS011;24195;48.654;9.294;2022-07-23T11:57:26;9.50;;;8.80;;
38413;SDS011;24195;48.654;9.294;2022-07-23T11:59:57;8.53;;;7.93;;
38413;SDS011;24195;48.654;9.294;2022-07-23T12:02:28;7.97;;;7.37;;
38413;SDS011;24195;48.654;9.294;2022-07-23T12:04:53;8.07;;;7.47;;
38413;SDS011;24195;48.654;9.294;2022-07-23T12:08:02;8.53;;;7.87;;
38413;SDS011;24195;48.654;9.294;2022-07-23T12:12:39;7.87;;;7.37;;
38413;SDS011;24195;48.654;9.294;2022-07-23T12:15:08;8.73;;;8.23;;
38413;SDS011;24195;48.654;9.294;2022-07-23T12:17:36;9.10;;;8.50;;
38413;SDS011;24195;48.654;9.294;2022-07-23T12:20:07;8.57;;;7.87;;
38413;SDS011;24195;48.654;9.294;2022-07-23T12:22:39;7.67;;;6.97;;
38413;SDS011;24195;48.654;9.294;2022-07-23T12:25:18;7.83;;;7.33;;
38413;SDS011;24195;48.654;9.294;2022-07-23T12:27:46;7.60;;;7.10;;
38413;SDS011;24195;48.654;9.294;2022-07-23T12:30:23;7.77;;;7.27;;
38413;SDS011;24195;48.654;9.294;2022-07-23T12:32:52;7.90;;;7.30;;
38413;SDS011;24195;48.654;9.294;2022-07-23T12:35:19;7.97;;;7.37;;
38413;SDS011;24195;48.654;9.294;2022-07-23T12:37:47;7.77;;;7.27;;
38413;SDS011;24195;48.654;9.294;2022-07-23T12:42:48;7.60;;;7.10;;
38413;SDS011;24195;48.654;9.294;2022-07-23T12:45:15;8.23;;;7.63;;
38413;SDS011;24195;48.654;9.294;2022-07-23T12:47:51;8.17;;;7.60;;
38413;SDS011;24195;48.654;9.294;2022-07-23T12:50:30;7.67;;;7.07;;
38413;SDS011;24195;48.654;9.294;2022-07-23T12:53:04;7.60;;;7.10;;
38413;SDS011;24195;48.654;9.294;2022-07-23T12:55:31;8.07;;;7.47;;
38413;SDS011;24195;48.654;9.294;2022-07-23T12:58:10;8.00;;;7.40;;
38413;SDS011;24195;48.654;9.294;2022-07-23T13:00:51;8.20;;;7.50;;
38413;SDS011;24195;48.654;9.294;2022-07-23T13:05:59;8.43;;;7.73;;
38413;SDS011;24195;48.654;9.294;2022-07-23T13:08:26;8.17;;;7.47;;
38413;SDS011;24195;48.654;9.294;2022-07-23T13:10:54;8.37;;;7.63;;
38413;SDS011;24195;48.654;9.294;2022-07-23T13:13:23;8.70;;;8.10;;
38413;SDS011;24195;48.654;9.294;2022-07-23T13:15:50;8.80;;;8.10;;
38413;SDS011;24195;48.654;9.294;2022-07-23T13:18:16;8.00;;;7.50;;
38413;SDS011;24195;48.654;9.294;2022-07-23T13:20:43;12.93;;;8.00;;
38413;SDS011;24195;48.654;9.294;2022-07-23T13:23:10;8.60;;;7.90;;
38413;SDS011;24195;48.654;9.294;2022-07-23T13:25:35;8.47;;;7.77;;
38413;SDS011;24195;48.654;9.294;2022-07-23T13:28:01;8.50;;;7.90;;
38413;SDS011;24195;48.654;9.294;2022-07-23T13:30:27;8.43;;;7.83;;
38413;SDS011;24195;48.654;9.294;2022-07-23T13:32:56;8.17;;;7.67;;
38413;SDS011;24195;48.654;9.294;2022-07-23T13:35:21;8.40;;;7.80;;
38413;SDS011;24195;48.654;9.294;2022-07-23T13:37:47;8.80;;;8.07;;
38413;SDS011;24195;48.654;9.294;2022-07-23T13:40:13;8.53;;;7.70;;
38413;SDS011;24195;48.654;9.294;2022-07-23T13:42:39;8.83;;;8.23;;
38413;SDS011;24195;48.654;9.294;2022-07-23T13:45:05;8.80;;;8.20;;
38413;SDS011;24195;48.654;9.294;2022-07-23T13:47:31;8.00;;;7.50;;
38413;SDS011;24195;48.654;9.294;2022-07-23T13:49:57;7.97;;;7.37;;
38413;SDS011;24195;48.654;9.294;2022-07-23T13:52:23;7.93;;;7.33;;
38413;SDS011;24195;48.654;9.294;2022-07-23T13:54:49;10.03;;;9.03;;
38413;SDS011;24195;48.654;9.294;2022-07-23T13:57:14;8.77;;;7.97;;
38413;SDS011;24195;48.654;9.294;2022-07-23T13:59:40;8.30;;;7.70;;
38413;SDS011;24195;48.654;9.294;2022-07-23T14:02:06;8.50;;;8.00;;
38413;SDS011;24195;48.654;9.294;2022-07-23T14:04:32;8.93;;;8.10;;
38413;SDS011;24195;48.654;9.294;2022-07-23T14:06:58;9.20;;;8.40;;
38413;SDS011;24195;48.654;9.294;2022-07-23T14:09:23;8.50;;;7.90;;
38413;SDS011;24195;48.654;9.294;2022-07-23T14:11:49;8.00;;;7.50;;
38413;SDS011;24195;48.654;9.294;2022-07-23T14:14:15;9.03;;;8.43;;
38413;SDS011;24195;48.654;9.294;2022-07-23T14:16:42;9.60;;;8.03;;
38413;SDS011;24195;48.654;9.294;2022-07-23T14:19:07;10.43;;;7.90;;
38413;SDS011;24195;48.654;9.294;2022-07-23T14:21:33;9.13;;;8.23;;
38413;SDS011;24195;48.654;9.294;2022-07-23T14:23:58;9.27;;;8.50;;
38413;SDS011;24195;48.654;9.294;2022-07-23T14:26:24;9.23;;;8.53;;
38413;SDS011;24195;48.654;9.294;2022-07-23T14:28:50;9.03;;;8.40;;
38413;SDS011;24195;48.654;9.294;2022-07-23T14:31:15;9.00;;;8.30;;
38413;SDS011;24195;48.654;9.294;2022-07-23T14:33:41;9.13;;;8.43;;
38413;SDS011;24195;48.654;9.294;2022-07-23T14:36:07;9.00;;;8.30;;
38413;SDS011;24195;48.654;9.294;2022-07-23T14:38:32;9.67;;;8.90;;
38413;SDS011;24195;48.654;9.294;2022-07-23T14:40:58;8.77;;;8.07;;
38413;SDS011;24195;48.654;9.294;2022-07-23T14:43:23;8.90;;;8.30;;
38413;SDS011;24195;48.654;9.294;2022-07-23T14:45:49;9.90;;;8.90;;
38413;SDS011;24195;48.654;9.294;2022-07-23T14:48:14;8.40;;;7.73;;
38413;SDS011;24195;48.654;9.294;2022-07-23T14:50:40;9.17;;;8.57;;
38413;SDS011;24195;48.654;9.294;2022-07-23T14:53:05;9.20;;;8.60;;
38413;SDS011;24195;48.654;9.294;2022-07-23T14:55:32;8.73;;;8.13;;
38413;SDS011;24195;48.654;9.294;2022-07-23T14:57:58;7.97;;;7.37;;
38413;SDS011;24195;48.654;9.294;2022-07-23T15:00:23;9.30;;;8.60;;
38413;SDS011;24195;48.654;9.294;2022-07-23T15:02:50;8.83;;;8.23;;
38413;SDS011;24195;48.654;9.294;2022-07-23T15:05:16;7.93;;;7.43;;
38413;SDS011;24195;48.654;9.294;2022-07-23T15:07:41;9.00;;;8.40;;
38413;SDS011;24195;48.654;9.294;2022-07-23T15:10:09;8.53;;;7.97;;
38413;SDS011;24195;48.654;9.294;2022-07-23T15:12:34;8.63;;;8.10;;
38413;SDS011;24195;48.654;9.294;2022-07-23T15:15:00;8.10;;;7.60;;
38413;SDS011;24195;48.654;9.294;2022-07-23T15:17:26;8.57;;;7.87;;
38413;SDS011;24195;48.654;9.294;2022-07-23T15:19:51;7.40;;;6.90;;
38413;SDS011;24195;48.654;9.294;2022-07-23T15:22:17;7.67;;;7.17;;
38413;SDS011;24195;48.654;9.294;2022-07-23T15:24:43;7.70;;;7.17;;
38413;SDS011;24195;48.654;9.294;2022-07-23T15:27:08;8.27;;;7.67;;
38413;SDS011;24195;48.654;9.294;2022-07-23T15:29:34;7.47;;;6.97;;
38413;SDS011;24195;48.654;9.294;2022-07-23T15:32:00;7.77;;;7.23;;